createdAt,value
2019-02-20T00:01:26.577Z,35.40
2019-02-20T00:03:53.544Z,35.36
2019-02-20T00:06:20.566Z,35.36
2019-02-20T00:08:47.532Z,35.42
2019-02-20T00:11:14.429Z,35.52
2019-02-20T00:13:41.302Z,35.57
2019-02-20T00:16:08.516Z,35.60
2019-02-20T00:18:35.465Z,35.60
2019-02-20T00:21:02.357Z,35.57
2019-02-20T00:23:30.490Z,35.51
2019-02-20T00:25:57.456Z,35.55
2019-02-20T00:28:24.415Z,35.56
2019-02-20T00:30:51.385Z,35.52
2019-02-20T00:33:18.584Z,35.54
2019-02-20T00:35:45.830Z,35.56
2019-02-20T00:38:13.188Z,35.55
2019-02-20T00:40:40.091Z,35.51
2019-02-20T00:43:07.105Z,35.57
2019-02-20T00:45:34.022Z,35.56
2019-02-20T00:48:01.285Z,35.59
2019-02-20T00:50:28.269Z,35.62
2019-02-20T00:52:55.568Z,35.68
2019-02-20T00:55:22.514Z,35.75
2019-02-20T00:57:49.666Z,35.72
2019-02-20T01:00:16.914Z,35.67
2019-02-20T01:02:43.796Z,35.65
2019-02-20T01:05:10.736Z,35.63
2019-02-20T01:07:37.704Z,35.58
2019-02-20T01:10:05.012Z,35.57
2019-02-20T01:12:31.916Z,35.64
2019-02-20T01:14:59.214Z,35.63
2019-02-20T01:17:26.177Z,35.62
2019-02-20T01:19:53.470Z,35.60
2019-02-20T01:22:20.654Z,35.57
2019-02-20T01:24:47.904Z,35.54
2019-02-20T01:27:15.077Z,35.57
2019-02-20T01:29:42.036Z,35.55
2019-02-20T01:32:08.925Z,35.56
2019-02-20T01:34:36.222Z,35.57
2019-02-20T01:37:03.450Z,35.58
2019-02-20T01:39:30.359Z,35.55
2019-02-20T01:41:57.317Z,35.53
2019-02-20T01:44:25.538Z,35.63
2019-02-20T01:46:52.433Z,35.63
2019-02-20T01:49:19.621Z,35.60
2019-02-20T01:51:46.533Z,35.57
2019-02-20T01:54:13.449Z,35.56
2019-02-20T01:56:40.794Z,35.51
2019-02-20T01:59:07.750Z,35.56
2019-02-20T02:01:35.789Z,35.64
2019-02-20T02:04:02.660Z,35.66
2019-02-20T02:06:30.717Z,35.65
2019-02-20T02:08:59.585Z,35.62
2019-02-20T02:11:26.266Z,35.58
2019-02-20T02:13:53.478Z,35.51
2019-02-20T02:16:20.734Z,35.45
2019-02-20T02:18:48.090Z,35.44
2019-02-20T02:21:15.344Z,35.43
2019-02-20T02:23:42.225Z,35.46
2019-02-20T02:26:11.125Z,35.41
2019-02-20T02:28:38.199Z,35.38
2019-02-20T02:31:05.439Z,35.42
2019-02-20T02:33:32.398Z,35.47
2019-02-20T02:35:59.389Z,35.50
2019-02-20T02:38:26.361Z,35.56
2019-02-20T02:40:53.668Z,35.61
2019-02-20T02:43:20.561Z,35.69
2019-02-20T02:45:47.780Z,35.68
2019-02-20T02:48:15.033Z,35.68
2019-02-20T02:50:42.006Z,35.67
2019-02-20T02:53:08.934Z,35.64
2019-02-20T02:55:35.957Z,35.71
2019-02-20T02:58:02.857Z,35.71
2019-02-20T03:00:30.165Z,35.77
2019-02-20T03:02:57.242Z,35.75
2019-02-20T03:05:24.175Z,35.71
2019-02-20T03:07:51.150Z,35.64
2019-02-20T03:10:18.050Z,35.58
2019-02-20T03:12:45.332Z,35.54
2019-02-20T03:15:12.565Z,35.55
2019-02-20T03:17:39.475Z,35.54
2019-02-20T03:20:06.851Z,35.60
2019-02-20T03:22:33.834Z,35.65
2019-02-20T03:25:00.804Z,35.61
2019-02-20T03:27:27.789Z,35.58
2019-02-20T03:29:55.657Z,35.55
2019-02-20T03:32:22.547Z,35.55
2019-02-20T03:34:49.406Z,35.48
2019-02-20T03:37:16.764Z,35.43
2019-02-20T03:39:43.770Z,35.46
2019-02-20T03:42:10.710Z,35.42
2019-02-20T03:44:37.702Z,35.43
2019-02-20T03:47:04.990Z,35.39
2019-02-20T03:49:32.155Z,35.36
2019-02-20T03:51:59.137Z,35.30
2019-02-20T03:54:26.102Z,35.30
2019-02-20T03:56:53.089Z,35.34
2019-02-20T03:59:20.037Z,35.37
2019-02-20T04:01:46.910Z,35.38
2019-02-20T04:04:13.863Z,35.36
2019-02-20T04:06:41.096Z,35.35
2019-02-20T04:09:08.064Z,35.44
2019-02-20T04:11:35.374Z,35.40
2019-02-20T04:14:02.623Z,35.39
2019-02-20T04:16:29.506Z,35.39
2019-02-20T04:18:56.836Z,35.34
2019-02-20T04:21:24.077Z,35.31
2019-02-20T04:24:01.584Z,35.31
2019-02-20T04:26:19.525Z,35.29
2019-02-20T04:28:46.528Z,35.29
2019-02-20T04:31:13.946Z,35.26
2019-02-20T04:33:40.907Z,35.24
2019-02-20T04:36:07.942Z,35.19
2019-02-20T04:38:35.006Z,35.20
2019-02-20T04:41:01.885Z,35.20
2019-02-20T04:43:28.828Z,35.24
2019-02-20T04:45:56.203Z,35.26
2019-02-20T04:48:23.163Z,35.29
2019-02-20T04:50:50.047Z,35.28
2019-02-20T04:53:18.930Z,35.25
2019-02-20T04:55:46.178Z,35.29
2019-02-20T04:58:13.154Z,35.38
2019-02-20T05:00:40.137Z,35.43
2019-02-20T05:03:07.376Z,35.50
2019-02-20T05:05:34.252Z,35.61
2019-02-20T05:08:01.238Z,35.62
2019-02-20T05:10:28.211Z,35.64
2019-02-20T05:12:55.228Z,35.66
2019-02-20T05:15:22.190Z,35.67
2019-02-20T05:17:49.566Z,35.72
2019-02-20T05:20:16.444Z,35.73
2019-02-20T05:22:43.411Z,35.75
2019-02-20T05:25:10.380Z,35.74
2019-02-20T05:27:37.336Z,35.75
2019-02-20T05:30:04.346Z,35.77
2019-02-20T05:32:32.083Z,35.76
2019-02-20T05:34:59.036Z,35.69
2019-02-20T05:37:25.986Z,35.63
2019-02-20T05:39:52.979Z,35.62
2019-02-20T05:42:20.260Z,35.56
2019-02-20T05:44:47.234Z,35.53
2019-02-20T05:47:14.571Z,35.45
2019-02-20T05:49:41.567Z,35.47
2019-02-20T05:52:08.504Z,35.49
2019-02-20T05:54:35.481Z,35.48
2019-02-20T05:57:02.406Z,35.44
2019-02-20T05:59:29.691Z,35.46
2019-02-20T06:01:56.573Z,35.41
2019-02-20T06:04:23.547Z,35.39
2019-02-20T06:06:50.844Z,35.37
2019-02-20T06:09:18.100Z,35.40
2019-02-20T06:11:45.204Z,35.34
2019-02-20T06:14:14.497Z,35.42
2019-02-20T06:16:41.801Z,35.40
2019-02-20T06:19:08.917Z,35.36
2019-02-20T06:21:35.886Z,35.36
2019-02-20T06:24:02.824Z,35.36
2019-02-20T06:26:30.094Z,35.47
2019-02-20T06:28:57.083Z,35.47
2019-02-20T06:31:24.089Z,35.50
2019-02-20T06:33:51.342Z,35.54
2019-02-20T06:36:18.710Z,35.52
2019-02-20T06:38:45.580Z,35.52
2019-02-20T06:41:12.470Z,35.51
2019-02-20T06:43:39.412Z,35.51
2019-02-20T06:46:06.575Z,35.60
2019-02-20T06:48:33.535Z,35.66
2019-02-20T06:51:00.765Z,35.67
2019-02-20T06:53:28.021Z,35.68
2019-02-20T06:55:54.993Z,35.66
2019-02-20T06:58:21.944Z,35.65
2019-02-20T07:00:49.162Z,35.62
2019-02-20T07:03:16.036Z,35.61
2019-02-20T07:05:42.930Z,35.58
2019-02-20T07:08:10.241Z,35.57
2019-02-20T07:10:37.225Z,35.53
2019-02-20T07:13:04.200Z,35.50
2019-02-20T07:15:31.090Z,35.51
2019-02-20T07:17:57.965Z,35.55
2019-02-20T07:20:24.927Z,35.52
2019-02-20T07:22:52.202Z,35.55
2019-02-20T07:25:19.071Z,35.55
2019-02-20T07:27:46.282Z,35.54
2019-02-20T07:30:13.177Z,35.55
2019-02-20T07:32:40.507Z,35.61
2019-02-20T07:35:07.427Z,35.64
2019-02-20T07:37:34.384Z,35.66
2019-02-20T07:40:01.329Z,35.62
2019-02-20T07:42:29.916Z,35.61
2019-02-20T07:44:56.887Z,35.58
2019-02-20T07:47:24.216Z,35.55
2019-02-20T07:49:51.466Z,35.54
2019-02-20T07:52:18.728Z,35.47
2019-02-20T07:54:45.672Z,35.44
2019-02-20T07:57:12.911Z,35.43
2019-02-20T07:59:39.866Z,35.41
2019-02-20T08:02:07.124Z,35.48
2019-02-20T08:04:34.067Z,35.43
2019-02-20T08:07:01.302Z,35.42
2019-02-20T08:09:28.182Z,35.38
2019-02-20T08:11:55.074Z,35.35
2019-02-20T08:14:21.960Z,35.33
2019-02-20T08:16:52.232Z,35.29
2019-02-20T08:19:17.773Z,35.31
2019-02-20T08:21:48.169Z,35.27
2019-02-20T08:24:18.333Z,35.31
2019-02-20T08:26:45.578Z,35.32
2019-02-20T08:29:12.832Z,35.32
2019-02-20T08:31:39.977Z,35.31
2019-02-20T08:34:06.867Z,35.32
2019-02-20T08:36:34.184Z,35.29
2019-02-20T08:39:01.331Z,35.33
2019-02-20T08:41:29.883Z,35.34
2019-02-20T08:43:56.823Z,35.35
2019-02-20T08:46:24.117Z,35.35
2019-02-20T08:48:51.424Z,35.34
2019-02-20T08:51:18.389Z,35.34
2019-02-20T08:53:45.333Z,35.40
2019-02-20T08:56:12.197Z,35.50
2019-02-20T08:58:39.453Z,35.64
2019-02-20T09:01:06.613Z,35.67
2019-02-20T09:03:33.515Z,35.63
2019-02-20T09:06:00.466Z,35.63
2019-02-20T09:08:27.636Z,35.58
2019-02-20T09:10:54.518Z,35.57
2019-02-20T09:13:21.877Z,35.53
2019-02-20T09:15:49.199Z,35.48
2019-02-20T09:18:16.080Z,35.42
2019-02-20T09:20:43.291Z,35.39
2019-02-20T09:23:10.604Z,35.48
2019-02-20T09:25:41.510Z,35.51
2019-02-20T09:28:06.425Z,35.53
2019-02-20T09:30:33.332Z,35.55
2019-02-20T09:33:00.294Z,35.49
2019-02-20T09:35:27.522Z,35.42
2019-02-20T09:37:58.832Z,35.38
2019-02-20T09:40:24.868Z,35.32
2019-02-20T09:42:51.891Z,35.37
2019-02-20T09:45:18.837Z,35.32
2019-02-20T09:47:46.967Z,35.17
2019-02-20T09:50:13.832Z,35.19
2019-02-20T09:52:41.952Z,35.15
2019-02-20T09:55:09.249Z,35.07
2019-02-20T09:57:36.201Z,35.02
2019-02-20T10:00:03.433Z,34.97
2019-02-20T10:02:32.249Z,34.84
2019-02-20T10:04:59.282Z,34.83
2019-02-20T10:07:26.541Z,34.80
2019-02-20T10:09:54.921Z,34.77
2019-02-20T10:12:23.299Z,34.68
2019-02-20T10:14:50.239Z,34.68
2019-02-20T10:17:17.176Z,34.59
2019-02-20T10:19:45.007Z,34.63
2019-02-20T10:22:12.742Z,34.56
2019-02-20T10:24:39.839Z,34.45
2019-02-20T10:27:06.713Z,34.38
2019-02-20T10:29:33.742Z,34.38
2019-02-20T10:32:01.119Z,34.38
2019-02-20T10:34:28.099Z,34.35
2019-02-20T10:36:55.316Z,34.37
2019-02-20T10:39:22.562Z,34.28
2019-02-20T10:41:49.546Z,34.21
2019-02-20T10:44:16.888Z,34.28
2019-02-20T10:46:43.850Z,34.51
2019-02-20T10:49:10.819Z,34.60
2019-02-20T10:51:38.740Z,34.57
2019-02-20T10:54:05.881Z,34.59
2019-02-20T10:56:32.795Z,34.66
2019-02-20T10:59:00.489Z,34.47
2019-02-20T11:01:27.831Z,34.39
2019-02-20T11:03:54.698Z,34.41
2019-02-20T11:06:21.569Z,34.47
2019-02-20T11:08:50.396Z,34.47
2019-02-20T11:11:17.168Z,34.45
2019-02-20T11:13:44.518Z,34.50
2019-02-20T11:16:11.464Z,34.55
2019-02-20T11:18:38.375Z,34.58
2019-02-20T11:21:05.332Z,34.58
2019-02-20T11:23:32.308Z,34.56
2019-02-20T11:25:59.656Z,34.38
2019-02-20T11:28:27.196Z,34.10
2019-02-20T11:30:56.889Z,33.96
2019-02-20T11:33:24.173Z,33.96
2019-02-20T11:35:51.430Z,34.00
2019-02-20T11:38:18.688Z,34.06
2019-02-20T11:40:45.930Z,33.97
2019-02-20T11:43:12.834Z,33.74
2019-02-20T11:45:40.125Z,33.59
2019-02-20T11:48:07.001Z,33.51
2019-02-20T11:50:33.889Z,33.44
2019-02-20T11:53:01.185Z,33.34
2019-02-20T11:55:28.413Z,33.18
2019-02-20T11:58:00.653Z,33.10
2019-02-20T12:00:24.160Z,33.06
2019-02-20T12:02:51.417Z,33.09
2019-02-20T12:05:18.380Z,33.09
2019-02-20T12:07:45.307Z,32.96
2019-02-20T12:10:12.859Z,32.81
2019-02-20T12:12:39.975Z,32.75
2019-02-20T12:15:07.310Z,32.69
2019-02-20T12:17:34.283Z,32.72
2019-02-20T12:20:01.247Z,32.80
2019-02-20T12:22:29.651Z,32.86
2019-02-20T12:24:56.545Z,32.77
2019-02-20T12:27:23.738Z,32.75
2019-02-20T12:29:51.049Z,32.65
2019-02-20T12:32:17.984Z,32.52
2019-02-20T12:34:46.442Z,32.50
2019-02-20T12:37:13.502Z,32.60
2019-02-20T12:39:40.723Z,32.78
2019-02-20T12:42:08.091Z,32.92
2019-02-20T12:44:35.069Z,32.95
2019-02-20T12:47:02.020Z,33.04
2019-02-20T12:49:28.906Z,33.01
2019-02-20T12:51:55.838Z,32.82
2019-02-20T12:54:23.126Z,33.62
2019-02-20T12:56:50.103Z,34.29
2019-02-20T12:59:17.602Z,35.45
2019-02-20T13:01:44.742Z,35.93
2019-02-20T13:04:11.905Z,35.94
2019-02-20T13:06:38.776Z,36.01
2019-02-20T13:09:06.021Z,35.85
2019-02-20T13:11:33.593Z,35.17
2019-02-20T13:14:00.533Z,35.12
2019-02-20T13:16:27.430Z,34.82
2019-02-20T13:18:54.717Z,34.85
2019-02-20T13:21:22.760Z,34.11
2019-02-20T13:23:50.039Z,34.09
2019-02-20T13:26:17.010Z,33.78
2019-02-20T13:28:43.950Z,33.85
2019-02-20T13:31:11.184Z,33.64
2019-02-20T13:33:38.061Z,33.46
2019-02-20T13:36:05.265Z,33.50
2019-02-20T13:38:32.466Z,33.58
2019-02-20T13:40:59.449Z,33.40
2019-02-20T13:43:26.728Z,33.53
2019-02-20T13:45:53.721Z,33.74
2019-02-20T13:48:20.656Z,33.53
2019-02-20T13:50:48.575Z,33.34
2019-02-20T13:53:15.546Z,33.28
2019-02-20T13:55:42.516Z,33.34
2019-02-20T13:58:11.584Z,33.13
2019-02-20T14:00:38.309Z,33.16
2019-02-20T14:03:06.194Z,33.11
2019-02-20T14:05:33.421Z,33.11
2019-02-20T14:08:00.686Z,33.26
2019-02-20T14:10:28.972Z,33.17
2019-02-20T14:12:55.916Z,32.95
2019-02-20T14:15:22.870Z,32.99
2019-02-20T14:17:49.860Z,33.09
2019-02-20T14:20:16.928Z,33.09
2019-02-20T14:22:43.953Z,33.02
2019-02-20T14:25:11.269Z,33.01
2019-02-20T14:27:38.228Z,32.83
2019-02-20T14:30:05.452Z,32.80
2019-02-20T14:32:33.637Z,32.65
2019-02-20T14:35:01.686Z,32.86
2019-02-20T14:37:30.298Z,32.82
2019-02-20T14:39:57.551Z,32.61
2019-02-20T14:42:24.777Z,32.69
2019-02-20T14:44:51.724Z,32.68
2019-02-20T14:47:19.013Z,32.52
2019-02-20T14:49:46.244Z,32.33
2019-02-20T14:52:13.218Z,32.06
2019-02-20T14:54:40.168Z,31.74
2019-02-20T14:57:07.134Z,31.88
2019-02-20T14:59:34.678Z,32.01
2019-02-20T15:02:01.647Z,32.00
2019-02-20T15:04:28.596Z,31.67
2019-02-20T15:06:55.569Z,31.70
2019-02-20T15:09:22.516Z,31.65
2019-02-20T15:11:49.501Z,31.48
2019-02-20T15:14:16.465Z,31.28
2019-02-20T15:16:43.437Z,31.10
2019-02-20T15:19:10.392Z,30.88
2019-02-20T15:21:37.407Z,30.75
2019-02-20T15:24:04.582Z,30.42
2019-02-20T15:26:31.523Z,30.39
2019-02-20T15:28:58.513Z,30.19
2019-02-20T15:31:33.413Z,30.40
2019-02-20T15:33:54.452Z,30.27
2019-02-20T15:36:22.087Z,29.86
2019-02-20T15:38:49.032Z,29.55
2019-02-20T15:41:16.285Z,29.16
2019-02-20T15:43:43.185Z,28.86
2019-02-20T15:46:10.496Z,28.98
2019-02-20T15:48:37.488Z,29.38
2019-02-20T15:51:04.454Z,29.92
2019-02-20T15:53:31.735Z,30.34
2019-02-20T15:55:59.006Z,30.63
2019-02-20T15:58:27.304Z,30.58
2019-02-20T16:00:54.341Z,30.54
2019-02-20T16:03:21.680Z,30.60
2019-02-20T16:05:48.631Z,30.67
2019-02-20T16:08:15.875Z,30.64
2019-02-20T16:10:42.850Z,30.50
2019-02-20T16:13:09.814Z,30.29
2019-02-20T16:15:37.157Z,30.12
2019-02-20T16:18:04.493Z,29.97
2019-02-20T16:20:31.444Z,30.13
2019-02-20T16:22:58.388Z,30.12
2019-02-20T16:25:25.727Z,30.16
2019-02-20T16:27:52.989Z,30.05
2019-02-20T16:30:20.236Z,30.03
2019-02-20T16:32:47.478Z,30.03
2019-02-20T16:35:14.757Z,30.07
2019-02-20T16:37:41.726Z,30.03
2019-02-20T16:40:09.045Z,30.03
2019-02-20T16:42:36.311Z,30.09
2019-02-20T16:45:03.265Z,30.19
2019-02-20T16:47:31.617Z,30.31
2019-02-20T16:49:58.977Z,30.41
2019-02-20T16:52:26.276Z,30.47
2019-02-20T16:54:55.014Z,30.48
2019-02-20T16:57:22.469Z,30.58
2019-02-20T16:59:49.817Z,30.70
2019-02-20T17:02:17.076Z,30.80
2019-02-20T17:04:44.339Z,30.85
2019-02-20T17:07:11.357Z,30.96
2019-02-20T17:09:38.304Z,31.09
2019-02-20T17:12:05.599Z,31.24
2019-02-20T17:14:32.838Z,31.41
2019-02-20T17:17:00.092Z,31.54
2019-02-20T17:19:27.055Z,31.54
2019-02-20T17:21:54.019Z,31.71
2019-02-20T17:24:20.957Z,31.82
2019-02-20T17:26:48.937Z,31.90
2019-02-20T17:29:16.423Z,31.95
2019-02-20T17:31:43.387Z,31.93
2019-02-20T17:34:10.362Z,32.11
2019-02-20T17:36:37.691Z,32.22
2019-02-20T17:39:07.186Z,32.28
2019-02-20T17:41:35.910Z,32.30
2019-02-20T17:44:02.973Z,32.40
2019-02-20T17:46:31.251Z,32.42
2019-02-20T17:48:58.269Z,32.38
2019-02-20T17:51:25.219Z,32.27
2019-02-20T17:53:52.290Z,32.22
2019-02-20T17:56:19.270Z,32.40
2019-02-20T17:58:46.244Z,32.49
2019-02-20T18:01:13.215Z,32.53
2019-02-20T18:03:40.442Z,32.58
2019-02-20T18:06:07.355Z,32.71
2019-02-20T18:08:34.646Z,32.77
2019-02-20T18:11:01.979Z,32.84
2019-02-20T18:13:29.260Z,32.91
2019-02-20T18:15:56.504Z,32.97
2019-02-20T18:18:23.394Z,32.98
2019-02-20T18:20:50.309Z,33.04
2019-02-20T18:23:17.821Z,33.03
2019-02-20T18:25:45.151Z,33.06
2019-02-20T18:28:12.322Z,33.11
2019-02-20T18:30:39.625Z,33.23
2019-02-20T18:33:06.516Z,33.27
2019-02-20T18:35:33.825Z,33.34
2019-02-20T18:38:00.806Z,33.48
2019-02-20T18:40:27.833Z,33.50
2019-02-20T18:42:54.817Z,33.61
2019-02-20T18:45:22.034Z,33.58
2019-02-20T18:47:49.264Z,33.61
2019-02-20T18:50:16.243Z,33.61
2019-02-20T18:52:43.197Z,33.62
2019-02-20T18:55:11.156Z,33.74
2019-02-20T18:57:38.130Z,33.85
2019-02-20T19:00:06.391Z,33.91
2019-02-20T19:02:34.992Z,34.05
2019-02-20T19:05:02.300Z,34.03
2019-02-20T19:07:30.779Z,34.15
2019-02-20T19:09:57.760Z,34.18
2019-02-20T19:12:24.738Z,34.17
2019-02-20T19:14:51.767Z,34.18
2019-02-20T19:19:59.475Z,34.26
2019-02-20T19:22:26.446Z,34.40
2019-02-20T19:24:54.461Z,34.46
2019-02-20T19:27:21.477Z,34.54
2019-02-20T19:29:48.765Z,34.61
2019-02-20T19:32:16.801Z,34.64
2019-02-20T19:34:43.704Z,34.69
2019-02-20T19:37:11.051Z,34.69
2019-02-20T19:39:38.367Z,34.75
2019-02-20T19:42:05.252Z,34.77
2019-02-20T19:44:32.589Z,34.78
2019-02-20T19:46:59.550Z,34.83
2019-02-20T19:49:26.485Z,34.83
2019-02-20T19:51:53.846Z,34.82
2019-02-20T19:54:20.897Z,34.84
2019-02-20T19:56:47.919Z,34.87
2019-02-20T19:59:15.009Z,34.95
2019-02-20T20:01:44.561Z,35.05
2019-02-20T20:04:10.517Z,34.99
2019-02-20T20:06:37.540Z,35.14
2019-02-20T20:09:04.619Z,35.30
2019-02-20T20:11:44.235Z,35.62
2019-02-20T20:14:03.249Z,35.54
2019-02-20T20:16:30.642Z,35.36
2019-02-20T20:18:57.982Z,35.26
2019-02-20T20:21:25.250Z,35.22
2019-02-20T20:23:52.279Z,35.11
2019-02-20T20:26:19.199Z,35.19
2019-02-20T20:28:46.075Z,35.20
2019-02-20T20:31:12.977Z,35.03
2019-02-20T20:33:39.987Z,34.88
2019-02-20T20:36:07.237Z,34.92
2019-02-20T20:38:34.648Z,34.96
2019-02-20T20:41:01.676Z,34.87
2019-02-20T20:43:28.563Z,34.75
2019-02-20T20:45:55.514Z,34.68
2019-02-20T20:48:22.548Z,34.70
2019-02-20T20:50:49.506Z,34.76
2019-02-20T20:53:16.491Z,34.67
2019-02-20T20:55:45.789Z,34.80
2019-02-20T20:58:12.697Z,34.79
2019-02-20T21:00:39.679Z,34.83
2019-02-20T21:03:07.015Z,34.87
2019-02-20T21:05:34.222Z,34.81
2019-02-20T21:08:01.204Z,34.92
2019-02-20T21:10:28.726Z,35.00
2019-02-20T21:12:58.043Z,35.06
2019-02-20T21:15:25.342Z,34.99
2019-02-20T21:17:52.787Z,34.94
2019-02-20T21:20:20.158Z,34.98
2019-02-20T21:22:47.335Z,35.20
2019-02-20T21:25:14.567Z,35.25
2019-02-20T21:27:41.813Z,35.31
2019-02-20T21:30:09.177Z,35.34
2019-02-20T21:32:36.200Z,35.31
2019-02-20T21:35:03.554Z,35.26
2019-02-20T21:37:30.527Z,35.36
2019-02-20T21:39:58.172Z,35.44
2019-02-20T21:42:25.158Z,35.42
2019-02-20T21:44:52.092Z,35.46
2019-02-20T21:47:19.322Z,35.32
2019-02-20T21:49:46.297Z,35.03
2019-02-20T21:52:13.653Z,35.17
2019-02-20T21:54:40.933Z,35.11
2019-02-20T21:57:08.318Z,35.08
2019-02-20T21:59:39.230Z,34.95
2019-02-20T22:02:03.893Z,34.78
2019-02-20T22:04:31.265Z,34.68
2019-02-20T22:07:00.269Z,34.61
2019-02-20T22:09:27.537Z,34.57
2019-02-20T22:11:54.449Z,34.52
2019-02-20T22:14:22.382Z,34.52
2019-02-20T22:16:49.297Z,34.59
2019-02-20T22:19:16.204Z,34.62
2019-02-20T22:21:43.526Z,34.58
2019-02-20T22:24:10.482Z,34.54
2019-02-20T22:26:37.542Z,34.56
2019-02-20T22:29:04.742Z,34.56
2019-02-20T22:31:32.125Z,34.60
2019-02-20T22:33:59.060Z,34.66
2019-02-20T22:36:28.899Z,34.71
2019-02-20T22:38:55.854Z,34.76
2019-02-20T22:41:24.206Z,34.75
2019-02-20T22:43:52.311Z,34.77
2019-02-20T22:46:19.573Z,34.78
2019-02-20T22:48:46.498Z,34.85
2019-02-20T22:51:13.390Z,34.86
2019-02-20T22:53:40.498Z,34.86
2019-02-20T22:56:07.432Z,34.91
2019-02-20T22:58:34.417Z,34.93
2019-02-20T23:01:06.302Z,34.93
2019-02-20T23:03:33.814Z,35.00
2019-02-20T23:06:00.808Z,35.01
2019-02-20T23:08:27.700Z,34.97
2019-02-20T23:10:55.177Z,35.02
2019-02-20T23:13:22.093Z,35.04
2019-02-20T23:15:49.115Z,35.02
2019-02-20T23:18:16.051Z,35.02
2019-02-20T23:20:42.931Z,35.04
2019-02-20T23:23:09.923Z,35.06
2019-02-20T23:25:37.173Z,35.05
2019-02-20T23:28:04.251Z,35.03
2019-02-20T23:30:31.149Z,35.02
2019-02-20T23:33:00.687Z,35.07
2019-02-20T23:35:27.004Z,35.10
2019-02-20T23:37:53.917Z,35.11
2019-02-20T23:40:21.154Z,35.15
2019-02-20T23:42:49.242Z,35.20
2019-02-20T23:45:16.309Z,35.25
2019-02-20T23:47:43.293Z,35.28
2019-02-20T23:50:10.287Z,35.29
2019-02-20T23:52:37.250Z,35.26
2019-02-20T23:55:04.250Z,35.28
2019-02-20T23:57:31.603Z,35.29
2019-02-20T23:59:58.975Z,35.32
